createdAt,value
2018-11-05T00:00:35.404Z,98036.00
2018-11-05T00:03:01.963Z,98022.62
2018-11-05T00:05:28.514Z,98017.52
2018-11-05T00:25:13.486Z,97997.89
2018-11-05T00:27:39.889Z,97994.14
2018-11-05T00:44:56.685Z,97970.83
2018-11-05T00:47:24.279Z,97964.81
2018-11-05T00:49:51.118Z,97967.83
2018-11-05T00:52:18.129Z,97959.43
2018-11-05T00:54:45.326Z,97955.50
2018-11-05T00:57:11.917Z,97954.90
2018-11-05T00:59:40.605Z,97964.30
2018-11-05T01:02:06.997Z,97952.79
2018-11-05T01:04:33.598Z,97953.97
2018-11-05T01:20:08.406Z,97948.13
2018-11-05T01:22:34.839Z,97940.41
2018-11-05T01:37:27.134Z,97931.75
2018-11-05T01:43:53.416Z,97917.16
2018-11-05T01:46:20.140Z,97916.89
2018-11-05T01:48:47.086Z,97922.58
2018-11-05T01:51:13.586Z,97915.66
2018-11-05T02:58:57.358Z,97858.37
2018-11-05T03:01:23.763Z,97858.80
2018-11-05T03:03:50.171Z,97858.11
2018-11-05T03:06:16.985Z,97864.58
2018-11-05T03:08:43.389Z,97870.53
2018-11-05T03:11:09.797Z,97863.80
2018-11-05T03:13:36.205Z,97863.21
2018-11-05T03:16:02.917Z,97858.30
2018-11-05T03:18:29.323Z,97860.87
2018-11-05T03:20:56.562Z,97868.19
2018-11-05T03:23:22.965Z,97860.81
2018-11-05T03:25:49.890Z,97858.86
2018-11-05T03:28:16.285Z,97851.77
2018-11-05T03:30:42.667Z,97857.48
2018-11-05T03:33:09.134Z,97855.89
2018-11-05T03:35:36.023Z,97851.47
2018-11-05T03:38:02.485Z,97851.48
2018-11-05T03:40:28.873Z,97851.48
2018-11-05T04:02:18.208Z,97818.91
2018-11-05T04:25:54.701Z,97813.53
2018-11-05T05:04:59.149Z,97825.42
2018-11-05T05:07:26.195Z,97815.70
2018-11-05T05:09:54.067Z,97816.61
2018-11-05T05:12:20.470Z,97810.84
2018-11-05T05:14:46.935Z,97816.53
2018-11-05T05:17:13.848Z,97807.77
2018-11-05T05:19:41.841Z,97815.22
2018-11-05T05:22:08.478Z,97807.48
2018-11-05T05:24:35.232Z,97805.46
2018-11-05T05:27:02.002Z,97808.63
2018-11-05T05:29:28.650Z,97805.15
2018-11-05T05:31:55.154Z,97810.98
2018-11-05T05:34:21.959Z,97810.07
2018-11-05T05:36:48.639Z,97814.84
2018-11-05T05:39:15.275Z,97817.55
2018-11-05T05:41:43.702Z,97807.07
2018-11-05T05:44:10.160Z,97819.52
2018-11-05T05:46:36.565Z,97825.92
2018-11-05T05:49:03.262Z,97815.02
2018-11-05T05:51:29.661Z,97813.27
2018-11-05T06:07:36.851Z,97794.80
2018-11-05T06:10:05.121Z,97794.66
2018-11-05T06:12:31.870Z,97797.81
2018-11-05T06:14:58.394Z,97801.17
2018-11-05T06:17:25.661Z,97805.02
2018-11-05T06:19:52.681Z,97812.01
2018-11-05T06:22:19.089Z,97811.50
2018-11-05T06:24:45.625Z,97816.97
2018-11-05T06:27:12.530Z,97806.64
2018-11-05T06:29:39.036Z,97821.42
2018-11-05T06:32:05.540Z,97829.78
2018-11-05T06:34:32.322Z,97845.77
2018-11-05T06:36:58.727Z,97841.24
2018-11-05T06:39:25.169Z,97847.83
2018-11-05T06:41:53.040Z,97845.70
2018-11-05T06:44:19.401Z,97846.36
2018-11-05T06:46:45.838Z,97849.11
2018-11-05T06:49:12.553Z,97856.06
2018-11-05T06:51:38.979Z,97849.41
2018-11-05T06:54:05.396Z,97845.52
2018-11-05T06:56:32.152Z,97837.77
2018-11-05T06:58:58.749Z,97840.02
2018-11-05T07:03:58.001Z,97855.03
2018-11-05T07:06:24.597Z,97839.73
2018-11-05T07:08:51.161Z,97835.91
2018-11-05T07:11:18.007Z,97840.11
2018-11-05T07:13:44.500Z,97828.86
2018-11-05T07:16:11.948Z,97833.35
2018-11-05T07:18:39.633Z,97821.23
2018-11-05T07:21:05.886Z,97820.00
2018-11-05T07:23:32.304Z,97823.54
2018-11-05T07:25:59.057Z,97819.75
2018-11-05T07:28:25.475Z,97827.07
2018-11-05T07:30:51.902Z,97839.91
2018-11-05T07:33:18.695Z,97858.44
2018-11-05T07:35:45.270Z,97860.29
2018-11-05T07:39:53.952Z,97866.86
2018-11-05T07:42:20.442Z,97883.38
2018-11-05T07:44:46.863Z,97872.30
2018-11-05T07:47:13.903Z,97869.48
2018-11-05T07:49:43.535Z,97865.28
2018-11-05T07:52:09.941Z,97855.42
2018-11-05T07:54:36.726Z,97849.77
2018-11-05T08:38:47.690Z,97817.16
2018-11-05T08:41:14.265Z,97814.77
2018-11-05T08:43:41.202Z,97812.16
2018-11-05T08:46:07.644Z,97806.66
2018-11-05T08:48:34.287Z,97796.92
2018-11-05T08:51:01.384Z,97795.22
2018-11-05T08:53:27.734Z,97794.67
2018-11-05T08:58:25.363Z,97786.31
2018-11-05T09:00:51.777Z,97785.35
2018-11-05T09:58:46.321Z,97781.66
2018-11-05T10:32:29.644Z,97753.92
2018-11-05T10:34:56.334Z,97760.74
2018-11-05T10:37:22.750Z,97745.61
2018-11-05T10:42:21.620Z,97755.95
2018-11-05T10:44:51.632Z,97738.77
2018-11-05T10:47:18.038Z,97746.26
2018-11-05T10:49:45.618Z,97734.61
2018-11-05T10:52:13.816Z,97733.97
2018-11-05T10:54:40.623Z,97721.53
2018-11-05T10:57:07.387Z,97724.40
2018-11-05T10:59:33.839Z,97717.59
2018-11-05T11:21:33.937Z,97731.70
2018-11-05T11:24:00.349Z,97749.68
2018-11-05T11:26:26.876Z,97737.37
2018-11-05T11:28:54.153Z,97727.64
2018-11-05T11:31:21.659Z,97727.67
2018-11-05T11:33:48.121Z,97723.13
2018-11-05T11:36:15.994Z,97728.05
2018-11-05T11:38:42.431Z,97732.11
2018-11-05T12:09:35.259Z,97685.00
2018-11-05T12:12:02.345Z,97677.79
2018-11-05T12:14:28.905Z,97680.56
2018-11-05T12:18:51.593Z,97682.71
2018-11-05T12:28:29.366Z,97673.92
2018-11-05T12:30:55.771Z,97674.43
2018-11-05T13:36:41.362Z,97614.42
2018-11-05T14:26:59.751Z,97595.98
2018-11-05T14:29:26.554Z,97595.62
2018-11-05T14:31:52.952Z,97595.12
2018-11-05T14:34:20.283Z,97588.88
2018-11-05T14:57:28.725Z,97587.95
2018-11-05T15:27:15.871Z,97576.61
2018-11-05T15:29:42.308Z,97572.98
2018-11-05T15:32:09.010Z,97579.65
2018-11-05T15:34:36.585Z,97578.95
2018-11-05T15:37:03.811Z,97579.82
2018-11-05T15:39:30.725Z,97583.82
2018-11-05T15:41:57.162Z,97577.24
2018-11-05T15:44:25.176Z,97575.55
2018-11-05T15:46:55.489Z,97573.78
2018-11-05T15:49:21.894Z,97571.52
2018-11-05T15:51:48.576Z,97571.02
2018-11-05T15:54:16.021Z,97577.30
2018-11-05T15:56:42.364Z,97576.28
2018-11-05T15:59:09.433Z,97571.91
2018-11-05T16:01:36.197Z,97568.92
2018-11-05T16:04:03.465Z,97576.85
2018-11-05T16:06:29.870Z,97576.39
2018-11-05T16:08:56.578Z,97580.47
2018-11-05T16:56:32.782Z,97620.14
2018-11-05T18:03:44.105Z,97555.42
2018-11-05T18:06:11.484Z,97553.00
2018-11-05T18:08:39.010Z,97551.70
2018-11-05T18:11:06.210Z,97558.59
2018-11-05T18:13:33.591Z,97565.03
2018-11-05T18:16:00.511Z,97561.33
2018-11-05T18:18:27.625Z,97567.27
2018-11-05T18:20:54.760Z,97563.56
2018-11-05T18:23:22.675Z,97552.82
2018-11-05T18:25:49.683Z,97550.81
2018-11-05T18:28:16.104Z,97543.76
2018-11-05T18:30:43.795Z,97539.14
2018-11-05T18:59:53.912Z,97560.31
2018-11-05T19:02:23.677Z,97553.09
2018-11-05T19:04:50.482Z,97549.42
2018-11-05T19:28:52.542Z,97556.60
2018-11-05T19:31:20.848Z,97544.06
2018-11-05T19:33:47.610Z,97548.36
2018-11-05T19:36:14.537Z,97551.76
2018-11-05T19:38:41.104Z,97553.26
2018-11-05T19:43:41.224Z,97553.66
2018-11-05T19:46:07.702Z,97553.21
2018-11-05T19:48:35.501Z,97546.67
2018-11-05T19:51:03.590Z,97558.99
2018-11-05T20:04:59.070Z,97546.75
2018-11-05T20:15:19.091Z,97564.19
2018-11-05T20:17:47.461Z,97565.71
2018-11-05T20:20:14.405Z,97568.23
2018-11-05T20:22:40.873Z,97555.83
2018-11-05T20:25:07.338Z,97552.72
2018-11-05T20:27:34.386Z,97550.94
2018-11-05T20:30:00.821Z,97545.55
2018-11-05T20:32:27.713Z,97546.23
2018-11-05T20:34:56.135Z,97551.27
2018-11-05T20:37:24.634Z,97552.49
2018-11-05T20:39:51.843Z,97553.44
2018-11-05T20:42:18.635Z,97557.62
2018-11-05T20:44:47.324Z,97564.39
2018-11-05T20:47:13.838Z,97568.02
2018-11-05T20:49:40.802Z,97576.81
2018-11-05T20:52:08.190Z,97564.53
2018-11-05T20:54:34.599Z,97569.25
2018-11-05T21:06:44.438Z,97569.70
2018-11-05T21:09:11.647Z,97571.79
2018-11-05T21:13:45.336Z,97575.06
2018-11-05T21:16:12.289Z,97575.63
2018-11-05T21:18:40.215Z,97566.88
2018-11-05T21:21:06.689Z,97567.83
2018-11-05T21:23:33.114Z,97572.32
2018-11-05T22:00:20.992Z,97553.86
2018-11-05T22:04:41.390Z,97569.14
2018-11-05T22:07:08.578Z,97558.34
2018-11-05T22:09:35.234Z,97554.04
2018-11-05T22:12:02.130Z,97551.87
2018-11-05T22:14:28.553Z,97559.38
2018-11-05T22:16:56.241Z,97551.06
2018-11-05T22:19:23.070Z,97552.86
2018-11-05T23:15:52.823Z,97537.27
2018-11-05T23:18:19.319Z,97535.78
2018-11-05T23:20:46.042Z,97542.19
2018-11-05T23:23:12.830Z,97541.16
2018-11-05T23:25:39.249Z,97542.56
2018-11-05T23:28:06.486Z,97542.32
2018-11-05T23:30:33.355Z,97549.03
2018-11-05T23:32:59.785Z,97546.05
2018-11-05T23:35:26.744Z,97545.67
2018-11-05T23:37:53.678Z,97558.05
2018-11-05T23:40:21.798Z,97553.23
2018-11-05T23:42:48.426Z,97543.48
2018-11-05T23:45:15.134Z,97544.84
2018-11-05T23:47:41.540Z,97542.72
2018-11-05T23:50:07.951Z,97543.34
2018-11-05T23:52:34.354Z,97541.25
2018-11-05T23:55:01.258Z,97551.38
2018-11-05T23:57:27.667Z,97558.33
2018-11-05T23:59:54.073Z,97559.94
